This is the latest recevied weather packets stored in our database for station/object DL4ABR-6. If no packets are shown the sender has not sent any weather packets the latest 10 day(s).
| Time | Temp. | Humidity | Pressure | Rain* | Wind** | Luminosity | Snow |
|---|---|---|---|---|---|---|---|
| 1777796994 | 23.33° C | 48% | 1008.5 hPa | 0 mm | - | - | - |
| 1777796124 | 22.78° C | 48% | 1008.5 hPa | 0 mm | - | - | - |
| 1777795275 | 22.22° C | 50% | 1008.6 hPa | 0 mm | - | - | - |
| 1777794510 | 21.67° C | 51% | 1008.3 hPa | 0 mm | - | - | - |
| 1777793665 | 21.11° C | 57% | 1008.5 hPa | 0 mm | - | - | - |
| 1777792830 | 20° C | 60% | 1008.5 hPa | 0 mm | - | - | - |
| 1777792084 | 18.89° C | 65% | 1008.3 hPa | 0 mm | - | - | - |
| 1777791190 | 18.33° C | 69% | 1008.2 hPa | 0 mm | - | - | - |
| 1777790364 | 17.22° C | 71% | 1008.5 hPa | 0 mm | - | - | - |
| 1777789624 | 15.56° C | 75% | 1008.7 hPa | 0 mm | - | - | - |
| 1777788895 | 15° C | 77% | 1008.6 hPa | 0 mm | - | - | - |
| 1777788155 | 13.89° C | 83% | 1008.8 hPa | 0 mm | - | - | - |
| 1777787390 | 12.78° C | 87% | 1008.7 hPa | 0 mm | - | - | - |
| 1777786544 | 11.11° C | 91% | 1008.8 hPa | 0 mm | - | - | - |
| 1777785790 | 10.56° C | 91% | 1008.6 hPa | 0 mm | - | - | - |
| 1777784958 | 10.56° C | 91% | 1008.9 hPa | 0 mm | - | - | - |
| 1777784120 | 10° C | 92% | 1008.8 hPa | 0 mm | - | - | - |
| 1777783295 | 10° C | 91% | 1008.6 hPa | 0 mm | - | - | - |
| 1777782405 | 9.44° C | 91% | 1008.7 hPa | 0 mm | - | - | - |
| 1777781655 | 9.44° C | 90% | 1008.6 hPa | 0 mm | - | - | - |
| 1777780758 | 9.44° C | 90% | 1008.9 hPa | 0 mm | - | - | - |
| 1777779860 | 10° C | 89% | 1008.7 hPa | 0 mm | - | - | - |
| 1777779120 | 10° C | 89% | 1009.1 hPa | 0 mm | - | - | - |
| 1777778335 | 10° C | 88% | 1008.9 hPa | 0 mm | - | - | - |
| 1777777455 | 10.56° C | 87% | 1008.9 hPa | 0 mm | - | - | - |
* Rain since midnight (hover to see other rain measurements)
** Current wind speed in m/s (hover to see current wind gust speed)